createdAt,value
2018-04-24T00:00:52.448Z,71.29
2018-04-24T00:03:20.868Z,71.21
2018-04-24T00:05:50.185Z,71.93
2018-04-24T00:08:18.581Z,71.55
2018-04-24T00:10:47.019Z,71.46
2018-04-24T00:13:15.441Z,71.27
2018-04-24T00:15:43.810Z,71.10
2018-04-24T00:18:12.234Z,69.49
2018-04-24T00:20:41.377Z,69.46
2018-04-24T00:23:10.522Z,69.57
2018-04-24T00:25:38.975Z,68.37
2018-04-24T00:28:07.365Z,68.68
2018-04-24T00:30:35.737Z,68.97
2018-04-24T00:33:04.881Z,68.86
2018-04-24T00:35:33.301Z,69.36
2018-04-24T00:38:01.686Z,69.10
2018-04-24T00:40:30.077Z,69.57
2018-04-24T00:42:59.226Z,69.46
2018-04-24T00:45:27.721Z,67.87
2018-04-24T00:47:56.102Z,69.12
2018-04-24T00:50:24.503Z,68.78
2018-04-24T00:52:52.880Z,69.71
2018-04-24T00:55:21.284Z,69.74
2018-04-24T00:57:49.683Z,69.21
2018-04-24T01:00:18.819Z,70.52
2018-04-24T01:02:47.219Z,71.47
2018-04-24T01:05:15.602Z,71.16
2018-04-24T01:07:43.981Z,71.18
2018-04-24T01:10:12.366Z,69.60
2018-04-24T01:12:40.750Z,70.39
2018-04-24T01:15:09.121Z,70.32
2018-04-24T01:17:37.503Z,70.04
2018-04-24T01:20:05.915Z,71.85
2018-04-24T01:22:34.298Z,70.77
2018-04-24T01:25:02.681Z,69.54
2018-04-24T01:27:31.845Z,69.96
2018-04-24T01:30:00.247Z,70.99
2018-04-24T01:32:28.655Z,70.83
2018-04-24T01:34:57.034Z,71.14
2018-04-24T01:37:25.433Z,72.12
2018-04-24T01:39:53.843Z,72.38
2018-04-24T01:42:22.981Z,72.48
2018-04-24T01:44:51.370Z,72.90
2018-04-24T01:47:19.752Z,72.81
2018-04-24T01:49:48.227Z,73.05
2018-04-24T01:52:16.622Z,73.52
2018-04-24T01:54:44.996Z,74.26
2018-04-24T01:57:13.372Z,75.11
2018-04-24T01:59:41.766Z,74.60
2018-04-24T02:02:10.162Z,74.12
2018-04-24T02:04:38.523Z,74.87
2018-04-24T02:07:06.921Z,74.78
2018-04-24T02:09:36.203Z,74.71
2018-04-24T02:12:04.608Z,74.82
2018-04-24T02:14:32.967Z,75.58
2018-04-24T02:17:01.362Z,74.48
2018-04-24T02:19:29.805Z,74.12
2018-04-24T02:21:58.958Z,74.58
2018-04-24T02:24:27.346Z,74.45
2018-04-24T02:26:55.741Z,74.29
2018-04-24T02:29:24.217Z,74.64
2018-04-24T02:31:52.586Z,75.00
2018-04-24T02:34:21.006Z,74.41
2018-04-24T02:36:49.484Z,74.79
2018-04-24T02:39:18.551Z,75.69
2018-04-24T02:41:46.934Z,75.75
2018-04-24T02:44:15.318Z,75.15
2018-04-24T02:46:43.768Z,75.20
2018-04-24T02:49:12.194Z,75.59
2018-04-24T02:51:40.565Z,74.67
2018-04-24T02:54:08.947Z,75.23
2018-04-24T02:56:37.318Z,75.50
2018-04-24T02:59:05.708Z,75.50
2018-04-24T03:01:34.051Z,74.31
2018-04-24T03:04:03.189Z,74.54
2018-04-24T03:06:31.672Z,74.52
2018-04-24T03:09:00.066Z,74.81
2018-04-24T03:11:28.397Z,74.89
2018-04-24T03:13:57.535Z,74.91
2018-04-24T03:16:25.913Z,73.95
2018-04-24T03:18:54.282Z,73.54
2018-04-24T03:21:22.646Z,74.16
2018-04-24T03:23:51.784Z,74.26
2018-04-24T03:26:20.187Z,74.38
2018-04-24T03:28:48.569Z,74.63
2018-04-24T03:31:17.003Z,75.16
2018-04-24T03:33:46.236Z,75.31
2018-04-24T03:36:15.402Z,75.42
2018-04-24T03:38:44.536Z,75.90
2018-04-24T03:41:12.940Z,75.64
2018-04-24T03:43:41.313Z,75.08
2018-04-24T03:46:09.686Z,74.34
2018-04-24T03:48:38.059Z,74.19
2018-04-24T03:51:06.424Z,74.75
2018-04-24T03:53:35.569Z,74.90
2018-04-24T03:56:03.935Z,75.93
2018-04-24T03:58:32.316Z,75.45
2018-04-24T04:01:00.794Z,75.60
2018-04-24T04:03:29.290Z,74.39
2018-04-24T04:05:57.707Z,73.68
2018-04-24T04:08:26.117Z,73.80
2018-04-24T04:10:55.251Z,73.57
2018-04-24T04:13:23.637Z,73.54
2018-04-24T04:15:52.015Z,73.15
2018-04-24T04:18:37.918Z,72.95
2018-04-24T04:21:24.678Z,72.76
2018-04-24T04:24:10.939Z,73.30
2018-04-24T04:26:39.299Z,72.99
2018-04-24T04:29:07.694Z,73.36
2018-04-24T04:31:36.081Z,72.20
2018-04-24T04:34:04.449Z,71.89
2018-04-24T04:36:32.812Z,72.44
2018-04-24T04:39:02.134Z,72.30
2018-04-24T04:41:30.569Z,72.53
2018-04-24T04:43:59.702Z,71.17
2018-04-24T04:46:28.101Z,71.86
2018-04-24T04:48:56.489Z,72.14
2018-04-24T04:51:24.883Z,71.51
2018-04-24T04:53:53.257Z,71.32
2018-04-24T04:56:21.674Z,70.34
2018-04-24T04:58:50.839Z,71.05
2018-04-24T05:01:19.273Z,70.51
2018-04-24T05:03:48.426Z,71.11
2018-04-24T05:06:17.564Z,70.23
2018-04-24T05:08:46.721Z,71.17
2018-04-24T05:11:15.150Z,70.07
2018-04-24T05:13:43.592Z,69.22
2018-04-24T05:16:11.982Z,70.00
2018-04-24T05:18:40.374Z,70.24
2018-04-24T05:21:08.780Z,69.96
2018-04-24T05:23:37.938Z,69.11
2018-04-24T05:26:07.083Z,70.38
2018-04-24T05:28:36.241Z,70.20
2018-04-24T05:31:04.621Z,71.74
2018-04-24T05:33:33.029Z,70.97
2018-04-24T05:36:01.462Z,70.13
2018-04-24T05:38:30.761Z,67.87
2018-04-24T05:40:59.168Z,68.37
2018-04-24T05:43:27.569Z,67.76
2018-04-24T05:45:55.950Z,65.87
2018-04-24T05:48:24.361Z,67.65
2018-04-24T05:50:53.560Z,66.86
2018-04-24T05:53:22.710Z,67.41
2018-04-24T05:55:51.145Z,67.29
2018-04-24T05:58:19.544Z,66.63
2018-04-24T06:00:48.768Z,67.16
2018-04-24T06:03:17.284Z,66.87
2018-04-24T06:05:45.744Z,66.59
2018-04-24T06:08:14.197Z,66.56
2018-04-24T06:10:42.550Z,65.94
2018-04-24T06:13:10.953Z,65.33
2018-04-24T06:15:39.341Z,65.39
2018-04-24T06:18:08.528Z,63.91
2018-04-24T06:20:36.938Z,65.44
2018-04-24T06:23:06.107Z,64.54
2018-04-24T06:25:34.501Z,65.02
2018-04-24T06:28:02.873Z,63.74
2018-04-24T06:30:31.258Z,63.90
2018-04-24T06:32:59.709Z,64.95
2018-04-24T06:35:28.106Z,64.50
2018-04-24T06:37:56.563Z,61.09
2018-04-24T06:40:24.942Z,62.61
2018-04-24T06:42:53.337Z,63.20
2018-04-24T06:45:22.484Z,62.36
2018-04-24T06:47:50.942Z,61.93
2018-04-24T06:50:19.302Z,63.32
2018-04-24T06:52:47.682Z,63.32
2018-04-24T06:55:16.103Z,63.10
2018-04-24T06:57:44.584Z,62.49
2018-04-24T07:00:12.977Z,62.07
2018-04-24T07:02:41.351Z,62.68
2018-04-24T07:05:10.344Z,61.98
2018-04-24T07:07:38.716Z,61.09
2018-04-24T07:10:07.122Z,62.31
2018-04-24T07:12:35.526Z,61.56
2018-04-24T07:15:04.692Z,61.70
2018-04-24T07:17:33.105Z,61.11
2018-04-24T07:20:02.270Z,60.75
2018-04-24T07:22:30.673Z,59.17
2018-04-24T07:24:59.110Z,59.93
2018-04-24T07:27:27.510Z,58.21
2018-04-24T07:29:55.902Z,60.53
2018-04-24T07:32:24.272Z,59.70
2018-04-24T07:34:52.671Z,59.50
2018-04-24T07:37:21.153Z,57.90
2018-04-24T07:39:49.533Z,59.20
2018-04-24T07:42:17.916Z,59.78
2018-04-24T07:44:46.306Z,58.95
2018-04-24T07:47:14.690Z,59.54
2018-04-24T07:49:43.077Z,60.01
2018-04-24T07:52:11.453Z,58.91
2018-04-24T07:54:39.843Z,58.67
2018-04-24T07:57:08.285Z,59.35
2018-04-24T07:59:36.660Z,60.25
2018-04-24T08:02:05.828Z,59.48
2018-04-24T08:04:34.199Z,59.74
2018-04-24T08:07:02.615Z,61.03
2018-04-24T08:09:31.763Z,59.96
2018-04-24T08:12:00.205Z,60.19
2018-04-24T08:14:29.385Z,59.82
2018-04-24T08:16:57.787Z,60.06
2018-04-24T08:19:26.956Z,59.25
2018-04-24T08:21:55.349Z,59.72
2018-04-24T08:24:23.754Z,60.60
2018-04-24T08:26:52.927Z,60.40
2018-04-24T08:29:21.363Z,59.80
2018-04-24T08:31:49.849Z,60.17
2018-04-24T08:34:18.234Z,61.57
2018-04-24T08:36:46.642Z,62.27
2018-04-24T08:39:15.026Z,61.51
2018-04-24T08:41:43.422Z,58.58
2018-04-24T08:44:11.837Z,57.80
2018-04-24T08:46:40.998Z,60.08
2018-04-24T08:49:10.162Z,59.19
2018-04-24T08:51:38.541Z,58.95
2018-04-24T08:54:06.921Z,57.88
2018-04-24T08:56:35.354Z,60.12
2018-04-24T08:59:03.898Z,57.95
2018-04-24T09:01:32.318Z,59.43
2018-04-24T09:04:00.719Z,59.78
2018-04-24T09:06:29.133Z,61.92
2018-04-24T09:08:58.287Z,59.92
2018-04-24T09:11:26.697Z,61.93
2018-04-24T09:13:55.086Z,61.62
2018-04-24T09:16:36.619Z,59.79
2018-04-24T09:19:05.022Z,60.78
2018-04-24T09:21:33.421Z,61.32
2018-04-24T09:24:01.825Z,59.38
2018-04-24T09:26:30.989Z,61.63
2018-04-24T09:29:00.171Z,61.98
2018-04-24T09:31:33.961Z,59.43
2018-04-24T09:34:02.358Z,60.29
2018-04-24T09:36:30.745Z,61.60
2018-04-24T09:38:59.161Z,60.18
2018-04-24T09:41:27.527Z,60.82
2018-04-24T09:43:55.977Z,63.49
2018-04-24T09:46:24.301Z,61.88
2018-04-24T09:48:52.789Z,62.61
2018-04-24T09:51:21.154Z,61.37
2018-04-24T09:53:49.518Z,61.58
2018-04-24T09:56:17.927Z,61.40
2018-04-24T09:58:46.333Z,62.74
2018-04-24T10:01:14.742Z,62.79
2018-04-24T10:03:43.938Z,61.88
2018-04-24T10:06:13.078Z,61.08
2018-04-24T10:08:41.474Z,61.81
2018-04-24T10:11:09.926Z,61.13
2018-04-24T10:13:38.324Z,60.49
2018-04-24T10:16:06.799Z,61.54
2018-04-24T10:18:35.176Z,59.94
2018-04-24T10:21:03.601Z,59.75
2018-04-24T10:23:31.982Z,60.13
2018-04-24T10:26:00.397Z,60.73
2018-04-24T10:28:29.552Z,61.87
2018-04-24T10:30:57.973Z,59.35
2018-04-24T10:33:26.354Z,60.80
2018-04-24T10:35:54.788Z,59.36
2018-04-24T10:38:23.171Z,60.95
2018-04-24T10:40:51.553Z,61.70
2018-04-24T10:43:19.966Z,61.68
2018-04-24T10:45:48.365Z,62.65
2018-04-24T10:48:16.736Z,61.59
2018-04-24T10:50:45.185Z,59.12
2018-04-24T10:53:13.556Z,57.55
2018-04-24T10:55:41.978Z,60.90
2018-04-24T10:58:10.388Z,59.60
2018-04-24T11:00:38.799Z,59.26
2018-04-24T11:03:07.169Z,57.81
2018-04-24T11:05:35.534Z,58.37
2018-04-24T11:08:03.936Z,56.33
2018-04-24T11:10:32.324Z,55.65
2018-04-24T11:13:01.513Z,53.62
2018-04-24T11:15:29.984Z,52.11
2018-04-24T11:17:58.353Z,54.03
2018-04-24T11:20:26.689Z,55.26
2018-04-24T11:22:55.073Z,52.92
2018-04-24T11:25:23.468Z,53.50
2018-04-24T11:27:51.836Z,54.94
2018-04-24T11:30:21.071Z,51.76
2018-04-24T11:32:49.389Z,53.48
2018-04-24T11:35:17.785Z,49.90
2018-04-24T11:37:46.930Z,50.66
2018-04-24T11:40:15.331Z,52.54
2018-04-24T11:42:43.690Z,49.31
2018-04-24T11:45:12.069Z,52.00
2018-04-24T11:47:40.457Z,52.95
2018-04-24T11:50:08.858Z,53.85
2018-04-24T11:52:37.332Z,49.90
2018-04-24T11:55:05.763Z,51.80
2018-04-24T11:57:34.163Z,50.92
2018-04-24T12:00:03.295Z,48.79
2018-04-24T12:02:31.787Z,51.88
2018-04-24T12:05:00.102Z,51.16
2018-04-24T12:07:28.448Z,52.57
2018-04-24T12:09:56.928Z,51.63
2018-04-24T12:12:26.037Z,53.04
2018-04-24T12:14:54.541Z,55.99
2018-04-24T12:17:22.943Z,53.78
2018-04-24T12:19:51.319Z,55.16
2018-04-24T12:22:19.741Z,54.75
2018-04-24T12:24:48.927Z,54.25
2018-04-24T12:27:17.289Z,54.51
2018-04-24T12:29:45.692Z,55.26
2018-04-24T12:32:14.882Z,55.68
2018-04-24T12:34:43.221Z,56.34
2018-04-24T12:37:11.591Z,53.63
2018-04-24T12:39:40.096Z,53.98
2018-04-24T12:42:08.506Z,55.22
2018-04-24T12:44:36.875Z,54.40
2018-04-24T12:47:05.273Z,56.43
2018-04-24T12:49:33.665Z,54.42
2018-04-24T12:52:02.083Z,53.20
2018-04-24T12:54:31.248Z,54.73
2018-04-24T12:56:59.645Z,53.85
2018-04-24T12:59:28.789Z,54.94
2018-04-24T13:01:57.187Z,55.77
2018-04-24T13:04:25.605Z,56.67
2018-04-24T13:06:54.000Z,57.42
2018-04-24T13:09:23.182Z,58.75
2018-04-24T13:11:51.564Z,59.31
2018-04-24T13:14:19.941Z,60.73
2018-04-24T13:16:48.343Z,59.93
2018-04-24T13:19:16.727Z,60.20
2018-04-24T13:21:45.090Z,59.37
2018-04-24T13:24:13.590Z,58.58
2018-04-24T13:26:42.012Z,60.06
2018-04-24T13:29:10.409Z,57.03
2018-04-24T13:31:38.799Z,55.63
2018-04-24T13:34:07.164Z,54.76
2018-04-24T13:36:35.586Z,54.79
2018-04-24T13:39:04.007Z,52.14
2018-04-24T13:41:33.172Z,54.97
2018-04-24T13:44:01.561Z,51.64
2018-04-24T13:46:29.978Z,50.62
2018-04-24T13:48:59.195Z,51.07
2018-04-24T13:51:27.533Z,51.36
2018-04-24T13:53:55.929Z,51.68
2018-04-24T13:56:24.379Z,52.56
2018-04-24T13:58:52.786Z,52.34
2018-04-24T14:01:21.178Z,55.60
2018-04-24T14:03:49.602Z,53.68
2018-04-24T14:06:18.007Z,52.75
2018-04-24T14:08:46.566Z,53.61
2018-04-24T14:11:14.958Z,53.14
2018-04-24T14:13:43.399Z,52.91
2018-04-24T14:16:11.774Z,57.64
2018-04-24T14:18:40.181Z,53.40
2018-04-24T14:21:09.356Z,52.21
2018-04-24T14:23:37.730Z,51.88
2018-04-24T14:26:06.196Z,51.88
2018-04-24T14:28:34.613Z,51.80
2018-04-24T14:31:02.988Z,52.11
2018-04-24T14:33:32.118Z,49.19
2018-04-24T14:36:01.346Z,48.17
2018-04-24T14:38:29.727Z,49.22
2018-04-24T14:40:58.126Z,50.42
2018-04-24T14:43:26.516Z,50.31
2018-04-24T14:45:54.922Z,53.32
2018-04-24T14:48:23.322Z,50.70
2018-04-24T14:50:51.693Z,52.70
2018-04-24T14:53:20.089Z,53.67
2018-04-24T14:55:48.462Z,53.94
2018-04-24T14:58:16.866Z,54.95
2018-04-24T15:00:45.227Z,54.38
2018-04-24T15:03:13.762Z,55.49
2018-04-24T15:05:42.254Z,57.48
2018-04-24T15:08:10.646Z,56.66
2018-04-24T15:10:39.012Z,56.57
2018-04-24T15:13:07.385Z,56.63
2018-04-24T15:15:36.529Z,55.73
2018-04-24T15:18:04.925Z,54.54
2018-04-24T15:20:33.512Z,54.46
2018-04-24T15:23:02.661Z,53.32
2018-04-24T15:25:31.061Z,53.48
2018-04-24T15:27:59.438Z,54.57
2018-04-24T15:30:27.801Z,56.55
2018-04-24T15:32:57.020Z,54.24
2018-04-24T15:35:25.391Z,54.39
2018-04-24T15:37:54.560Z,55.98
2018-04-24T15:40:22.936Z,55.10
2018-04-24T15:42:51.327Z,54.93
2018-04-24T15:45:19.705Z,54.50
2018-04-24T15:47:48.092Z,54.37
2018-04-24T15:50:16.498Z,56.39
2018-04-24T15:52:45.636Z,55.86
2018-04-24T15:55:14.007Z,53.15
2018-04-24T15:57:42.391Z,52.41
2018-04-24T16:00:10.793Z,52.42
2018-04-24T16:02:39.170Z,53.43
2018-04-24T16:05:07.606Z,55.52
2018-04-24T16:07:36.738Z,53.68
2018-04-24T16:10:05.114Z,52.87
2018-04-24T16:12:33.559Z,52.44
2018-04-24T16:15:01.997Z,54.95
2018-04-24T16:17:30.397Z,54.06
2018-04-24T16:19:58.774Z,57.27
2018-04-24T16:22:27.141Z,57.05
2018-04-24T16:24:55.547Z,58.48
2018-04-24T16:27:23.934Z,53.62
2018-04-24T16:29:52.286Z,53.98
2018-04-24T16:32:20.658Z,54.21
2018-04-24T16:34:49.050Z,52.76
2018-04-24T16:37:17.444Z,54.38
2018-04-24T16:39:45.872Z,56.21
2018-04-24T16:42:14.372Z,55.49
2018-04-24T16:44:43.527Z,55.62
2018-04-24T16:47:11.917Z,57.90
2018-04-24T16:49:40.266Z,58.19
2018-04-24T16:52:08.659Z,58.85
2018-04-24T16:54:37.819Z,58.60
2018-04-24T16:57:06.221Z,60.69
2018-04-24T16:59:35.394Z,57.90
2018-04-24T17:02:03.918Z,58.65
2018-04-24T17:04:32.414Z,58.56
2018-04-24T17:07:00.800Z,57.88
2018-04-24T17:09:29.210Z,57.79
2018-04-24T17:11:57.656Z,58.12
2018-04-24T17:14:26.016Z,58.35
2018-04-24T17:16:55.245Z,57.78
2018-04-24T17:19:23.624Z,58.13
2018-04-24T17:21:52.086Z,59.18
2018-04-24T17:24:21.280Z,58.73
2018-04-24T17:26:50.581Z,58.84
2018-04-24T17:29:18.965Z,59.91
2018-04-24T17:31:48.202Z,59.83
2018-04-24T17:34:16.604Z,61.62
2018-04-24T17:36:45.017Z,61.42
2018-04-24T17:39:13.437Z,62.60
2018-04-24T17:41:42.622Z,62.95
2018-04-24T17:44:11.009Z,63.38
2018-04-24T17:46:40.407Z,64.22
2018-04-24T17:49:08.865Z,63.40
2018-04-24T17:51:37.257Z,64.09
2018-04-24T17:54:05.662Z,63.17
2018-04-24T17:56:34.069Z,62.74
2018-04-24T17:59:03.223Z,62.93
2018-04-24T18:01:31.622Z,63.76
2018-04-24T18:04:00.130Z,64.91
2018-04-24T18:06:29.294Z,64.43
2018-04-24T18:08:57.711Z,65.55
2018-04-24T18:11:26.899Z,66.96
2018-04-24T18:13:55.280Z,67.98
2018-04-24T18:16:23.669Z,66.94
2018-04-24T18:18:52.066Z,67.72
2018-04-24T18:21:21.262Z,69.35
2018-04-24T18:23:50.432Z,69.00
2018-04-24T18:26:19.639Z,71.03
2018-04-24T18:28:48.010Z,70.31
2018-04-24T18:31:16.417Z,70.33
2018-04-24T18:33:44.887Z,71.11
2018-04-24T18:36:13.280Z,71.30
2018-04-24T18:38:41.668Z,71.54
2018-04-24T18:41:10.074Z,72.57
2018-04-24T18:43:39.233Z,72.32
2018-04-24T18:46:07.641Z,72.11
2018-04-24T18:48:36.039Z,72.17
2018-04-24T18:51:05.262Z,72.01
2018-04-24T18:53:33.671Z,71.79
2018-04-24T18:56:02.127Z,72.63
2018-04-24T18:58:30.529Z,72.72
2018-04-24T19:00:58.916Z,73.72
2018-04-24T19:03:27.342Z,74.11
2018-04-24T19:05:55.714Z,72.79
2018-04-24T19:08:24.143Z,72.75
2018-04-24T19:10:52.536Z,73.11
2018-04-24T19:13:20.950Z,73.24
2018-04-24T19:15:49.320Z,73.40
2018-04-24T19:18:17.697Z,73.47
2018-04-24T19:20:46.174Z,73.63
2018-04-24T19:23:14.594Z,73.62
2018-04-24T19:25:43.754Z,72.73
2018-04-24T19:28:12.922Z,72.94
2018-04-24T19:30:42.081Z,73.14
2018-04-24T19:33:10.518Z,73.30
2018-04-24T19:35:39.026Z,73.67
2018-04-24T19:38:07.506Z,73.93
2018-04-24T19:40:41.531Z,73.78
2018-04-24T19:43:10.027Z,74.34
2018-04-24T19:45:38.423Z,74.51
2018-04-24T19:48:08.374Z,75.00
2018-04-24T19:50:37.522Z,75.18
2018-04-24T19:53:05.879Z,74.46
2018-04-24T19:55:34.270Z,73.89
2018-04-24T19:58:02.862Z,74.20
2018-04-24T20:00:31.239Z,74.48
2018-04-24T20:02:59.641Z,74.55
2018-04-24T20:05:28.015Z,74.86
2018-04-24T20:07:56.419Z,75.23
2018-04-24T20:10:24.802Z,75.48
2018-04-24T20:12:53.282Z,75.34
2018-04-24T20:15:21.704Z,75.28
2018-04-24T20:17:50.109Z,74.96
2018-04-24T20:20:19.279Z,74.57
2018-04-24T20:22:47.697Z,74.21
2018-04-24T20:25:16.862Z,74.31
2018-04-24T20:27:45.276Z,74.15
2018-04-24T20:30:14.454Z,73.79
2018-04-24T20:32:42.822Z,74.21
2018-04-24T20:35:11.260Z,74.29
2018-04-24T20:37:39.646Z,74.68
2018-04-24T20:40:08.023Z,74.81
2018-04-24T20:42:36.413Z,75.13
2018-04-24T20:45:04.812Z,75.07
2018-04-24T20:47:33.193Z,74.58
2018-04-24T20:50:01.617Z,74.82
2018-04-24T20:52:30.040Z,74.57
2018-04-24T20:54:58.439Z,74.41
2018-04-24T20:57:26.855Z,74.27
2018-04-24T20:59:55.247Z,74.40
2018-04-24T21:02:23.641Z,74.66
2018-04-24T21:04:52.061Z,74.63
2018-04-24T21:07:20.580Z,74.79
2018-04-24T21:09:48.960Z,75.20
2018-04-24T21:12:17.371Z,75.58
2018-04-24T21:14:45.754Z,75.61
2018-04-24T21:17:14.164Z,75.67
2018-04-24T21:19:43.321Z,75.74
2018-04-24T21:22:11.766Z,75.18
2018-04-24T21:24:40.240Z,75.31
2018-04-24T21:27:08.646Z,76.10
2018-04-24T21:29:37.027Z,75.05
2018-04-24T21:32:05.410Z,74.27
2018-04-24T21:34:33.869Z,73.69
2018-04-24T21:37:03.012Z,72.58
2018-04-24T21:39:31.422Z,73.01
2018-04-24T21:41:59.866Z,72.56
2018-04-24T21:44:28.274Z,72.67
2018-04-24T21:46:56.665Z,72.69
2018-04-24T21:49:25.092Z,72.05
2018-04-24T21:51:54.310Z,72.18
2018-04-24T21:54:22.748Z,72.57
2018-04-24T21:56:51.135Z,71.85
2018-04-24T21:59:19.555Z,72.15
2018-04-24T22:01:48.018Z,71.47
2018-04-24T22:04:16.386Z,71.43
2018-04-24T22:06:44.793Z,70.24
2018-04-24T22:09:13.958Z,69.22
2018-04-24T22:11:42.345Z,69.80
2018-04-24T22:14:10.743Z,69.76
2018-04-24T22:16:39.174Z,70.64
2018-04-24T22:19:07.583Z,71.56
2018-04-24T22:21:36.019Z,71.72
2018-04-24T22:24:04.393Z,72.24
2018-04-24T22:26:32.795Z,72.47
2018-04-24T22:29:01.191Z,72.07
2018-04-24T22:31:29.599Z,71.22
2018-04-24T22:33:58.252Z,70.84
2018-04-24T22:36:26.728Z,70.17
2018-04-24T22:38:55.158Z,69.80
2018-04-24T22:41:23.565Z,69.86
2018-04-24T22:43:53.041Z,69.35
2018-04-24T22:46:21.443Z,68.70
2018-04-24T22:48:49.846Z,68.43
2018-04-24T22:51:18.991Z,68.62
2018-04-24T22:53:47.405Z,68.69
2018-04-24T22:56:15.794Z,67.58
2018-04-24T22:58:44.206Z,67.87
2018-04-24T23:01:13.371Z,67.70
2018-04-24T23:03:41.799Z,67.56
2018-04-24T23:06:10.218Z,66.59
2018-04-24T23:08:38.613Z,67.12
2018-04-24T23:11:24.791Z,66.09
2018-04-24T23:14:10.840Z,65.62
2018-04-24T23:16:57.775Z,64.93
2018-04-24T23:19:43.829Z,64.75
2018-04-24T23:22:34.490Z,64.04
2018-04-24T23:25:02.858Z,64.80
2018-04-24T23:27:31.252Z,64.34
2018-04-24T23:29:59.643Z,65.25
2018-04-24T23:32:28.030Z,64.96
2018-04-24T23:34:56.408Z,65.20
2018-04-24T23:37:24.817Z,64.96
2018-04-24T23:39:53.960Z,64.66
2018-04-24T23:42:22.332Z,65.03
2018-04-24T23:44:50.687Z,65.15
2018-04-24T23:47:19.826Z,64.67
2018-04-24T23:49:48.214Z,64.90
2018-04-24T23:52:16.671Z,65.43
2018-04-24T23:54:45.066Z,64.86
2018-04-24T23:57:13.435Z,64.44
2018-04-24T23:59:41.859Z,64.10
